Time;durP1;ratioP1;P1;durP2;ratioP2;P2;SDS_P1;SDS_P2;PMS_P1;PMS_P2;Temp;Humidity;BMP_temperature;BMP_pressure;BME280_temperature;BME280_humidity;BME280_pressure;Samples;Min_cycle;Max_cycle;Signal;HPM_P1;HPM_P2
2021/12/14 00:00:52;;;;;;;4.03;2.75;;;;;;;;;;1982159;28;20168;-80
2021/12/14 00:01:54;;;;;;;3.90;2.55;;;;;;;;;;1982476;29;20280;-80
2021/12/14 00:02:55;;;;;;;6.18;2.85;;;;;;;;;;1982445;29;20179;-78
2021/12/14 00:03:56;;;;;;;6.32;2.40;;;;;;;;;;1990097;28;20187;-76
2021/12/14 00:04:58;;;;;;;6.53;2.90;;;;;;;;;;1999760;28;20200;-74
2021/12/14 00:05:58;;;;;;;4.38;2.85;;;;;;;;;;1991149;29;20271;-78
2021/12/14 00:06:59;;;;;;;7.07;3.15;;;16.30;98.00;;;;;;1989045;29;20160;-74
2021/12/14 00:08:01;;;;;;;5.32;2.70;;;;;;;;;;1992485;28;20259;-74
2021/12/14 00:09:02;;;;;;;5.90;2.90;;;;;;;;;;1992551;28;20160;-76
2021/12/14 00:10:10;;;;;;;4.22;2.47;;;;;;;;;;1992164;29;20180;-74
2021/12/14 00:11:26;;;;;;;4.53;2.72;;;;;;;;;;1992293;29;20183;-73
2021/12/14 00:12:40;;;;;;;4.95;2.45;;;;;;;;;;1992143;28;20171;-74
2021/12/14 00:13:53;;;;;;;4.80;2.83;;;;;;;;;;1982889;29;20291;-81
2021/12/14 00:15:56;;;;;;;3.20;2.67;;;;;;;;;;1983130;29;20623;-81
2021/12/14 00:16:59;;;;;;;4.28;2.80;;;;;;;;;;1982607;29;20175;-79
2021/12/14 00:18:01;;;;;;;4.50;2.65;;;;;;;;;;1981983;28;20191;-80
2021/12/14 00:19:01;;;;;;;3.53;2.10;;;;;;;;;;1982005;29;20194;-81
2021/12/14 00:20:04;;;;;;;5.30;3.35;;;;;;;;;;1982638;29;20190;-79
2021/12/14 00:21:30;;;;;;;4.70;2.50;;;;;;;;;;1982807;29;20697;-80
2021/12/14 00:24:06;;;;;;;3.80;2.90;;;;;;;;;;1981923;28;20268;-81
2021/12/14 00:24:06;;;;;;;5.63;3.45;;;;;;;;;;1982226;29;20205;-80
2021/12/14 00:25:07;;;;;;;3.67;2.53;;;16.30;95.00;;;;;;1982593;28;20167;-81
2021/12/14 00:26:06;;;;;;;5.13;2.60;;;16.30;95.00;;;;;;1982574;28;20536;-81
2021/12/14 00:27:07;;;;;;;3.73;2.30;;;16.30;95.00;;;;;;1982480;28;20182;-81
2021/12/14 00:28:22;;;;;;;5.55;3.00;;;16.30;95.50;;;;;;1982680;29;20485;-80
2021/12/14 00:29:33;;;;;;;5.10;3.13;;;16.30;95.30;;;;;;1981787;28;20591;-80
2021/12/14 00:30:33;;;;;;;8.18;2.40;;;16.30;95.50;;;;;;1981971;29;20239;-80
2021/12/14 00:31:34;;;;;;;4.50;2.35;;;16.40;95.60;;;;;;1982608;28;20179;-81
2021/12/14 00:32:36;;;;;;;4.93;2.30;;;16.30;95.60;;;;;;1982502;28;20266;-81
2021/12/14 00:33:35;;;;;;;5.30;2.65;;;16.30;95.70;;;;;;1982577;28;20217;-82
2021/12/14 00:34:44;;;;;;;4.22;2.40;;;16.30;95.80;;;;;;1982575;28;20180;-81
2021/12/14 00:35:44;;;;;;;5.20;2.72;;;16.30;95.70;;;;;;1982563;28;20299;-81
2021/12/14 00:36:43;;;;;;;5.40;3.10;;;16.30;95.70;;;;;;1982471;28;20547;-79
2021/12/14 00:37:45;;;;;;;3.60;2.80;;;16.30;95.70;;;;;;1982571;29;20174;-81
2021/12/14 00:38:46;;;;;;;3.38;2.45;;;16.30;95.90;;;;;;1982561;28;20227;-81
2021/12/14 00:39:46;;;;;;;3.35;2.40;;;16.30;95.80;;;;;;1982564;28;20209;-80
2021/12/14 00:40:54;;;;;;;7.70;2.83;;;16.30;96.00;;;;;;1982330;28;20183;-80
2021/12/14 00:41:52;;;;;;;3.33;2.20;;;16.30;96.10;;;;;;1982552;28;20168;-81
2021/12/14 00:42:52;;;;;;;5.67;2.90;;;16.30;96.70;;;;;;1982608;28;20175;-82
2021/12/14 00:43:51;;;;;;;5.97;2.40;;;16.50;97.00;;;;;;1982480;28;20510;-80
2021/12/14 00:44:50;;;;;;;4.00;2.40;;;16.30;97.20;;;;;;1981720;28;20187;-81
2021/12/14 00:45:49;;;;;;;4.20;2.50;;;;;;;;;;1981955;29;20183;-79
2021/12/14 00:46:50;;;;;;;8.30;2.80;;;;;;;;;;1981516;29;20603;-82
2021/12/14 00:47:52;;;;;;;3.78;2.67;;;;;;;;;;1981997;29;20171;-80
2021/12/14 00:48:52;;;;;;;5.40;2.70;;;;;;;;;;1982436;28;20596;-80
2021/12/14 00:49:54;;;;;;;5.38;2.55;;;;;;;;;;1982393;28;20179;-80
2021/12/14 00:50:56;;;;;;;11.82;2.72;;;16.10;96.80;;;;;;1982207;28;20538;-80
2021/12/14 00:51:55;;;;;;;3.25;1.90;;;16.30;95.40;;;;;;1982279;28;20274;-80
2021/12/14 00:52:54;;;;;;;3.10;2.33;;;16.30;95.10;;;;;;1981754;29;20175;-82
2021/12/14 00:53:53;;;;;;;3.40;2.70;;;16.30;94.70;;;;;;1981805;29;20218;-81
2021/12/14 00:54:51;;;;;;;5.03;2.87;;;16.30;94.60;;;;;;1981788;29;20523;-81
2021/12/14 00:55:52;;;;;;;5.53;2.50;;;16.30;94.30;;;;;;1981810;29;20952;-81
2021/12/14 00:56:52;;;;;;;4.03;2.63;;;16.30;94.30;;;;;;1989330;28;20686;-80
2021/12/14 00:57:51;;;;;;;2.50;2.30;;;16.30;95.00;;;;;;1982468;28;20189;-82
2021/12/14 00:58:49;;;;;;;4.28;2.97;;;16.30;95.40;;;;;;1982371;28;20234;-81
2021/12/14 00:59:48;;;;;;;3.83;2.40;;;16.30;95.40;;;;;;1982354;28;20238;-79
2021/12/14 01:00:53;;;;;;;4.50;2.40;;;16.30;95.20;;;;;;1982376;29;20202;-79
2021/12/14 01:02:01;;;;;;;3.20;2.60;;;16.30;94.80;;;;;;1982216;28;20195;-82
2021/12/14 01:03:03;;;;;;;2.58;2.08;;;16.30;94.60;;;;;;1982189;28;20167;-79
2021/12/14 01:04:07;;;;;;;4.47;2.85;;;16.30;94.50;;;;;;1981638;29;20249;-82
2021/12/14 01:05:15;;;;;;;6.13;2.45;;;;;;;;;;1981924;28;20187;-82
2021/12/14 01:06:16;;;;;;;3.80;2.40;;;15.80;96.10;;;;;;1982270;28;20675;-81
2021/12/14 01:07:16;;;;;;;6.30;2.58;;;16.30;96.70;;;;;;1982356;28;20643;-82
2021/12/14 01:08:18;;;;;;;3.25;2.50;;;;;;;;;;1982476;28;20192;-81
2021/12/14 01:09:20;;;;;;;4.45;2.50;;;;;;;;;;1982421;28;20175;-81
2021/12/14 01:10:22;;;;;;;5.25;2.92;;;;;;;;;;1982356;29;20179;-79
2021/12/14 01:11:33;;;;;;;3.50;2.65;;;;;;;;;;1982261;28;20183;-79
2021/12/14 01:12:41;;;;;;;4.95;2.50;;;16.30;97.50;;;;;;1981603;28;20167;-81
2021/12/14 01:13:45;;;;;;;2.35;2.13;;;16.30;97.50;;;;;;1981455;28;20211;-80
2021/12/14 01:15:10;;;;;;;5.50;2.50;;;16.30;97.50;;;;;;1981473;28;20174;-78
2021/12/14 01:16:31;;;;;;;4.05;2.50;;;16.30;97.60;;;;;;1981882;29;20159;-81
2021/12/14 01:17:42;;;;;;;3.72;2.17;;;16.30;97.50;;;;;;1982348;28;20611;-80
2021/12/14 01:18:47;;;;;;;5.47;2.90;;;16.20;97.30;;;;;;1982323;28;20660;-81
2021/12/14 01:19:55;;;;;;;3.50;2.50;;;16.20;97.60;;;;;;1981532;28;20186;-79
2021/12/14 01:20:59;;;;;;;3.40;2.65;;;16.20;97.60;;;;;;1981724;29;20211;-81
2021/12/14 01:23:14;;;;;;;5.80;2.80;;;16.20;97.60;;;;;;1982172;28;20638;-81
2021/12/14 01:25:45;;;;;;;2.22;2.03;;;16.20;97.50;;;;;;1982292;28;20167;-81
2021/12/14 01:26:44;;;;;;;5.60;2.90;;;16.20;97.60;;;;;;1982279;29;20194;-80
2021/12/14 01:28:06;;;;;;;4.07;2.80;;;16.30;97.60;;;;;;1982169;29;20528;-81
2021/12/14 01:29:09;;;;;;;6.38;2.30;;;16.20;97.40;;;;;;1982322;28;20576;-80
2021/12/14 01:30:19;;;;;;;4.05;2.20;;;16.20;97.10;;;;;;1982403;29;20246;-81
2021/12/14 01:31:33;;;;;;;6.00;2.45;;;16.20;97.00;;;;;;1981782;29;20238;-78
2021/12/14 01:32:35;;;;;;;5.95;2.60;;;16.30;97.10;;;;;;1981673;29;20170;-80
2021/12/14 01:33:37;;;;;;;3.25;2.47;;;16.20;97.00;;;;;;1981731;29;20206;-80
2021/12/14 01:34:37;;;;;;;3.83;2.20;;;16.20;96.90;;;;;;1981651;29;20172;-79
2021/12/14 01:35:40;;;;;;;4.97;2.45;;;16.20;96.80;;;;;;1981406;28;20189;-79
2021/12/14 01:36:44;;;;;;;3.10;2.60;;;16.20;96.80;;;;;;1981449;29;20188;-79
2021/12/14 01:37:59;;;;;;;6.40;3.03;;;16.20;96.60;;;;;;1982167;29;20279;-80
2021/12/14 01:40:46;;;;;;;3.95;2.38;;;16.20;96.70;;;;;;1982272;28;20163;-80
2021/12/14 01:41:40;;;;;;;2.75;2.40;;;16.20;96.70;;;;;;1981888;29;20186;-80
2021/12/14 01:42:40;;;;;;;4.35;2.70;;;16.20;96.80;;;;;;1981904;29;20163;-80
2021/12/14 01:43:54;;;;;;;6.18;2.10;;;16.20;96.90;;;;;;1981466;29;20176;-81
2021/12/14 01:44:57;;;;;;;4.28;2.63;;;16.20;96.90;;;;;;1981277;28;20560;-80
2021/12/14 01:46:00;;;;;;;3.92;2.83;;;16.20;97.00;;;;;;1982030;28;20191;-79
2021/12/14 01:47:05;;;;;;;5.28;2.55;;;16.20;97.10;;;;;;1981831;28;20186;-80
2021/12/14 01:48:04;;;;;;;5.88;3.20;;;16.20;97.00;;;;;;1982015;29;20172;-78
2021/12/14 01:49:07;;;;;;;3.57;2.30;;;16.20;97.10;;;;;;1981303;29;20638;-78
2021/12/14 01:50:11;;;;;;;4.65;2.40;;;16.20;97.10;;;;;;1981244;29;20457;-79
2021/12/14 01:51:11;;;;;;;2.83;2.50;;;16.20;97.10;;;;;;1981581;29;20178;-79
2021/12/14 01:52:14;;;;;;;4.72;2.85;;;16.20;97.30;;;;;;1981925;28;20303;-80
2021/12/14 01:53:14;;;;;;;3.67;2.15;;;16.20;97.10;;;;;;1981265;29;20249;-80
2021/12/14 01:54:16;;;;;;;3.67;2.22;;;16.20;97.40;;;;;;1981369;28;20686;-80
2021/12/14 01:55:25;;;;;;;6.28;2.22;;;16.20;97.30;;;;;;1981907;28;20602;-80
2021/12/14 01:56:27;;;;;;;4.20;2.30;;;16.20;97.50;;;;;;1981976;28;20274;-81
2021/12/14 01:57:30;;;;;;;4.28;2.40;;;16.20;97.70;;;;;;1981873;28;20653;-81
2021/12/14 01:58:51;;;;;;;5.93;1.88;;;16.20;97.90;;;;;;1981831;28;20584;-78
2021/12/14 01:59:57;;;;;;;3.25;1.92;;;;;;;;;;1981737;28;20171;-78
2021/12/14 02:01:00;;;;;;;4.05;2.70;;;;;;;;;;1982191;28;20599;-79
2021/12/14 02:03:19;;;;;;;2.25;2.00;;;;;;;;;;1982037;29;20627;-80
2021/12/14 02:04:21;;;;;;;2.75;2.10;;;;;;;;;;1981898;28;20242;-80
2021/12/14 02:05:27;;;;;;;4.68;2.80;;;;;;;;;;1981904;28;20195;-79
2021/12/14 02:06:29;;;;;;;3.45;2.65;;;;;;;;;;1981779;29;20666;-78
2021/12/14 02:07:28;;;;;;;3.83;2.50;;;;;;;;;;1982023;28;20505;-79
2021/12/14 02:08:32;;;;;;;3.92;2.00;;;;;;;;;;1981810;28;20175;-80
2021/12/14 02:09:35;;;;;;;3.22;2.20;;;;;;;;;;1981324;29;20163;-80
2021/12/14 02:10:37;;;;;;;3.22;2.30;;;16.10;98.00;;;;;;1981304;29;20163;-79
2021/12/14 02:11:43;;;;;;;3.17;2.45;;;16.20;96.80;;;;;;1981649;28;20250;-80
2021/12/14 02:12:43;;;;;;;2.75;2.22;;;16.20;96.80;;;;;;1981010;29;20307;-80
2021/12/14 02:13:45;;;;;;;5.30;3.00;;;16.10;96.50;;;;;;1981324;29;20556;-79
2021/12/14 02:14:45;;;;;;;2.42;2.13;;;16.20;96.40;;;;;;1981865;28;20198;-79
2021/12/14 02:15:44;;;;;;;5.07;2.30;;;16.20;96.70;;;;;;1981779;28;20203;-79
2021/12/14 02:16:46;;;;;;;6.78;2.20;;;16.20;96.60;;;;;;1981763;28;20646;-80
2021/12/14 02:17:45;;;;;;;4.35;2.10;;;16.20;96.40;;;;;;1980861;29;20214;-79
2021/12/14 02:18:48;;;;;;;7.17;3.03;;;16.20;96.50;;;;;;1981178;29;20210;-80
2021/12/14 02:19:48;;;;;;;3.45;2.45;;;16.20;96.60;;;;;;1981882;28;20407;-80
2021/12/14 02:20:55;;;;;;;3.10;2.30;;;16.20;96.70;;;;;;1981912;28;20239;-80
2021/12/14 02:21:55;;;;;;;3.03;2.17;;;16.20;96.60;;;;;;1981103;29;20181;-81
2021/12/14 02:22:54;;;;;;;3.55;2.35;;;16.20;96.90;;;;;;1981391;29;20179;-80
2021/12/14 02:23:55;;;;;;;3.63;2.40;;;16.20;97.10;;;;;;1981555;28;20262;-80
2021/12/14 02:24:53;;;;;;;4.60;2.28;;;16.20;96.80;;;;;;1981638;28;20523;-79
2021/12/14 02:25:55;;;;;;;3.53;2.20;;;16.20;96.80;;;;;;1981681;28;20329;-81
2021/12/14 02:26:54;;;;;;;3.65;2.60;;;16.20;96.80;;;;;;1980992;29;20229;-79
2021/12/14 02:27:55;;;;;;;3.77;2.50;;;16.20;96.70;;;;;;1981069;29;20185;-80
2021/12/14 02:28:56;;;;;;;3.03;2.35;;;16.20;96.70;;;;;;1981409;29;20474;-80
2021/12/14 02:30:09;;;;;;;2.95;2.20;;;16.20;96.90;;;;;;1980829;29;20179;-80
2021/12/14 02:31:10;;;;;;;5.28;2.25;;;16.20;96.90;;;;;;1981420;29;20207;-79
2021/12/14 02:32:14;;;;;;;2.90;2.10;;;16.20;96.80;;;;;;1981782;29;20172;-80
2021/12/14 02:33:31;;;;;;;4.30;2.33;;;16.20;96.80;;;;;;1981141;28;20626;-81
2021/12/14 02:34:30;;;;;;;3.67;2.00;;;16.20;96.90;;;;;;1981303;29;20170;-79
2021/12/14 02:35:29;;;;;;;4.23;2.63;;;16.20;96.80;;;;;;1981547;29;20579;-81
2021/12/14 02:36:32;;;;;;;2.73;2.20;;;16.20;96.90;;;;;;1981493;28;20521;-80
2021/12/14 02:37:53;;;;;;;3.30;2.25;;;16.20;96.90;;;;;;1980894;29;20175;-80
2021/12/14 02:39:06;;;;;;;2.72;2.25;;;16.20;96.70;;;;;;1981102;29;20183;-78
2021/12/14 02:40:20;;;;;;;3.08;1.98;;;16.20;96.90;;;;;;1981529;29;20162;-80
2021/12/14 02:41:19;;;;;;;2.90;2.22;;;16.10;97.00;;;;;;1981707;28;20491;-80
2021/12/14 02:42:25;;;;;;;7.57;2.28;;;16.20;97.00;;;;;;1981574;29;20258;-81
2021/12/14 02:43:43;;;;;;;5.95;2.00;;;16.10;97.10;;;;;;1981702;28;20516;-81
2021/12/14 02:44:46;;;;;;;2.70;1.90;;;16.20;97.20;;;;;;1981507;28;20243;-81
2021/12/14 02:45:44;;;;;;;3.55;2.08;;;16.20;97.10;;;;;;1981576;29;20531;-82
2021/12/14 02:47:07;;;;;;;3.73;1.90;;;16.20;97.20;;;;;;1981632;29;20282;-80
2021/12/14 02:48:08;;;;;;;3.45;2.30;;;16.20;97.40;;;;;;1981368;29;20258;-80
2021/12/14 02:49:11;;;;;;;4.10;2.40;;;16.10;97.40;;;;;;1981479;28;20179;-81
2021/12/14 02:50:11;;;;;;;2.85;2.25;;;16.20;97.30;;;;;;1981662;28;20160;-80
2021/12/14 02:51:46;;;;;;;5.10;2.00;;;16.10;97.60;;;;;;1981637;28;20291;-79
2021/12/14 02:52:45;;;;;;;2.10;1.80;;;;;;;;;;1980199;28;20206;-80
2021/12/14 02:53:46;;;;;;;1.73;1.63;;;;;;;;;;1981468;29;20572;-81
2021/12/14 02:54:48;;;;;;;2.20;1.70;;;;;;;;;;1980855;29;20184;-82
2021/12/14 02:55:47;;;;;;;2.47;2.28;;;16.00;97.70;;;;;;1980873;29;20323;-81
2021/12/14 02:56:49;;;;;;;4.77;2.30;;;16.10;96.20;;;;;;1980906;29;20338;-80
2021/12/14 02:57:52;;;;;;;4.13;2.05;;;16.10;95.90;;;;;;1981554;28;20167;-79
2021/12/14 02:58:56;;;;;;;3.10;1.92;;;16.20;95.90;;;;;;1981625;28;20180;-81
2021/12/14 02:59:55;;;;;;;3.75;2.55;;;16.10;95.70;;;;;;1981342;28;20262;-81
2021/12/14 03:00:56;;;;;;;4.30;2.00;;;16.20;95.70;;;;;;1980745;29;20206;-80
2021/12/14 03:02:03;;;;;;;2.63;1.83;;;16.20;95.60;;;;;;1980943;29;20681;-81
2021/12/14 03:03:04;;;;;;;3.10;1.88;;;16.20;95.50;;;;;;1981704;28;20164;-81
2021/12/14 03:04:07;;;;;;;2.90;2.22;;;16.20;95.60;;;;;;1981471;28;20631;-81
2021/12/14 03:05:12;;;;;;;4.05;2.03;;;16.20;95.50;;;;;;1980810;29;20209;-80
2021/12/14 03:06:15;;;;;;;2.50;2.22;;;16.20;95.60;;;;;;1980980;29;20183;-81
2021/12/14 03:07:16;;;;;;;2.10;1.65;;;16.10;95.30;;;;;;1980792;28;20602;-79
2021/12/14 03:08:17;;;;;;;2.40;2.10;;;16.10;95.30;;;;;;1980889;29;20522;-80
2021/12/14 03:10:39;;;;;;;3.95;2.13;;;16.10;95.20;;;;;;1981581;28;20163;-80
2021/12/14 03:11:38;;;;;;;3.70;2.45;;;16.10;95.20;;;;;;1981340;29;20622;-80
2021/12/14 03:12:42;;;;;;;2.30;1.93;;;16.10;95.10;;;;;;1980679;28;20202;-80
2021/12/14 03:13:45;;;;;;;3.15;2.15;;;16.10;95.00;;;;;;1980765;28;20422;-80
2021/12/14 03:14:52;;;;;;;2.15;1.70;;;16.10;94.90;;;;;;1981264;28;20225;-80
2021/12/14 03:15:54;;;;;;;3.83;2.17;;;16.10;94.90;;;;;;1981373;28;20183;-81
2021/12/14 03:16:53;;;;;;;2.50;1.70;;;16.10;94.70;;;;;;1981527;28;20654;-79
2021/12/14 03:17:58;;;;;;;2.85;2.20;;;16.10;95.00;;;;;;1981473;28;20175;-80
2021/12/14 03:18:59;;;;;;;6.00;2.65;;;16.10;95.10;;;;;;1980811;29;20670;-80
2021/12/14 03:20:08;;;;;;;3.78;1.98;;;16.10;95.10;;;;;;1980846;29;20179;-80
2021/12/14 03:21:13;;;;;;;2.60;2.10;;;16.10;95.00;;;;;;1980754;28;20241;-81
2021/12/14 03:22:30;;;;;;;8.20;2.10;;;16.10;95.10;;;;;;1980836;29;20185;-82
2021/12/14 03:23:35;;;;;;;3.85;2.03;;;16.10;95.00;;;;;;1981657;29;20218;-80
2021/12/14 03:24:38;;;;;;;2.50;1.77;;;16.00;95.10;;;;;;1981286;29;20178;-79
2021/12/14 03:25:41;;;;;;;2.92;2.00;;;16.10;95.00;;;;;;1981571;29;20171;-81
2021/12/14 03:26:44;;;;;;;2.33;2.10;;;16.10;95.10;;;;;;1981672;28;20193;-81
2021/12/14 03:27:44;;;;;;;2.53;2.30;;;16.10;95.10;;;;;;1981895;28;20171;-80
2021/12/14 03:28:48;;;;;;;2.25;2.05;;;16.10;95.00;;;;;;1980918;28;20175;-80
2021/12/14 03:29:47;;;;;;;3.65;2.72;;;16.10;95.00;;;;;;1981362;28;20210;-81
2021/12/14 03:31:11;;;;;;;3.70;2.57;;;16.10;95.00;;;;;;1980673;29;20238;-80
2021/12/14 03:32:10;;;;;;;4.13;2.05;;;16.10;95.00;;;;;;1981167;29;20175;-81
2021/12/14 03:33:16;;;;;;;3.00;2.17;;;16.10;95.10;;;;;;1981504;28;20643;-81
2021/12/14 03:34:22;;;;;;;3.97;2.40;;;16.10;95.10;;;;;;1981524;28;20199;-80
2021/12/14 03:35:33;;;;;;;2.50;1.95;;;16.10;95.20;;;;;;1981207;29;20179;-80
2021/12/14 03:36:37;;;;;;;3.58;1.80;;;16.10;95.20;;;;;;1981178;28;20191;-80
2021/12/14 03:37:35;;;;;;;2.38;1.73;;;16.10;95.10;;;;;;1981350;28;20187;-80
2021/12/14 03:38:42;;;;;;;3.63;2.30;;;16.10;95.20;;;;;;1981461;29;20167;-82
2021/12/14 03:39:46;;;;;;;3.35;2.40;;;16.10;95.10;;;;;;1981608;28;20198;-80
2021/12/14 03:41:03;;;;;;;2.08;1.80;;;16.10;95.00;;;;;;1980874;29;20187;-81
2021/12/14 03:42:33;;;;;;;2.03;1.83;;;16.10;95.10;;;;;;1980426;29;20266;-79
2021/12/14 03:43:34;;;;;;;9.13;2.30;;;16.10;95.20;;;;;;1980693;29;20163;-80
2021/12/14 03:44:40;;;;;;;2.75;2.05;;;16.00;95.30;;;;;;1981642;29;20628;-82
2021/12/14 03:45:39;;;;;;;2.67;1.88;;;16.00;95.20;;;;;;1981461;28;20203;-81
2021/12/14 03:46:49;;;;;;;3.40;2.30;;;16.10;95.30;;;;;;1981353;28;20281;-81
2021/12/14 03:47:52;;;;;;;2.55;1.95;;;16.10;95.30;;;;;;1980917;29;20481;-81
2021/12/14 03:48:51;;;;;;;3.05;2.15;;;16.10;95.40;;;;;;1980705;29;20167;-81
2021/12/14 03:49:55;;;;;;;5.20;2.47;;;16.10;95.40;;;;;;1981437;28;20250;-82
2021/12/14 03:50:54;;;;;;;2.80;1.90;;;16.20;95.40;;;;;;1981527;28;20426;-81
2021/12/14 03:51:54;;;;;;;3.28;2.28;;;16.40;95.60;;;;;;1981254;28;20183;-81
2021/12/14 03:52:52;;;;;;;10.52;2.63;;;16.10;95.50;;;;;;1981607;28;20254;-79
2021/12/14 03:53:53;;;;;;;2.83;1.90;;;16.10;95.50;;;;;;1981317;28;20226;-79
2021/12/14 03:54:52;;;;;;;3.47;2.40;;;16.10;95.50;;;;;;1981468;29;20180;-82
2021/12/14 03:55:55;;;;;;;3.50;1.95;;;16.10;95.50;;;;;;1981282;29;20194;-81
2021/12/14 03:56:54;;;;;;;5.32;2.03;;;16.20;95.60;;;;;;1996048;28;20242;-81
2021/12/14 03:57:53;;;;;;;4.33;2.23;;;16.10;95.70;;;;;;1996332;28;20249;-81
2021/12/14 03:58:52;;;;;;;3.03;2.13;;;16.10;95.60;;;;;;1982625;28;20171;-81
2021/12/14 03:59:52;;;;;;;3.08;2.60;;;16.30;95.60;;;;;;1981394;28;20250;-82
2021/12/14 04:00:56;;;;;;;2.50;1.80;;;16.10;95.50;;;;;;1981412;28;20689;-79
2021/12/14 04:01:57;;;;;;;2.90;2.00;;;16.10;95.40;;;;;;1981583;28;20250;-81
2021/12/14 04:02:58;;;;;;;2.10;1.90;;;16.10;95.50;;;;;;1981307;28;20175;-80
2021/12/14 04:04:03;;;;;;;2.55;1.55;;;16.10;95.50;;;;;;1981641;28;20179;-82
2021/12/14 04:05:09;;;;;;;2.85;2.20;;;16.10;95.60;;;;;;1981416;28;20262;-80
2021/12/14 04:06:09;;;;;;;4.28;2.40;;;16.10;95.60;;;;;;1981435;28;20166;-80
2021/12/14 04:07:11;;;;;;;2.25;1.98;;;16.10;95.60;;;;;;1981537;28;20207;-80
2021/12/14 04:08:12;;;;;;;4.90;2.08;;;16.10;95.70;;;;;;1980550;29;20334;-80
2021/12/14 04:09:13;;;;;;;2.13;1.92;;;16.10;95.70;;;;;;1981064;29;20259;-79
2021/12/14 04:10:15;;;;;;;2.88;2.20;;;16.10;95.90;;;;;;1981493;28;20215;-79
2021/12/14 04:11:14;;;;;;;4.40;1.90;;;16.10;96.10;;;;;;1981295;29;20261;-79
2021/12/14 04:12:18;;;;;;;2.53;2.03;;;16.10;96.30;;;;;;1981224;29;20300;-81
2021/12/14 04:13:20;;;;;;;3.28;2.17;;;16.10;96.40;;;;;;1981492;28;20174;-81
2021/12/14 04:14:20;;;;;;;3.10;2.30;;;16.10;96.60;;;;;;1981385;28;20289;-81
2021/12/14 04:15:20;;;;;;;3.33;2.35;;;16.10;96.40;;;;;;1981492;28;20513;-81
2021/12/14 04:16:21;;;;;;;2.78;2.25;;;16.10;96.50;;;;;;1981295;28;20203;-79
2021/12/14 04:17:22;;;;;;;2.30;2.10;;;16.10;96.50;;;;;;1980753;29;20183;-81
2021/12/14 04:18:21;;;;;;;2.67;1.90;;;16.10;96.60;;;;;;1980880;29;20178;-81
2021/12/14 04:19:23;;;;;;;2.80;1.90;;;16.10;96.40;;;;;;1980719;29;20650;-80
2021/12/14 04:20:27;;;;;;;3.28;2.22;;;16.10;96.50;;;;;;1981014;29;20550;-81
2021/12/14 04:21:26;;;;;;;4.85;2.30;;;16.10;96.80;;;;;;1982156;29;20586;-78
2021/12/14 04:22:30;;;;;;;7.00;2.00;;;16.10;97.10;;;;;;1981387;29;20179;-81
2021/12/14 04:23:35;;;;;;;2.95;1.95;;;16.10;97.10;;;;;;1981598;28;20175;-80
2021/12/14 04:24:37;;;;;;;2.30;1.80;;;;;;;;;;1981223;29;20180;-80
2021/12/14 04:25:39;;;;;;;3.38;2.42;;;;;;;;;;1981459;28;20175;-81
2021/12/14 04:26:44;;;;;;;4.00;2.25;;;16.00;97.80;;;;;;1981328;29;20192;-81
2021/12/14 04:27:44;;;;;;;3.85;2.25;;;;;;;;;;1981721;28;20622;-81
2021/12/14 04:28:46;;;;;;;6.63;2.90;;;16.00;97.80;;;;;;1981118;28;20171;-80
2021/12/14 04:29:46;;;;;;;2.63;1.90;;;;;;;;;;1981617;29;20349;-82
2021/12/14 04:30:46;;;;;;;2.90;1.90;;;;;;;;;;1981254;29;20253;-81
2021/12/14 04:31:46;;;;;;;2.50;1.50;;;;;;;;;;1980579;29;20718;-80
2021/12/14 04:32:48;;;;;;;2.67;2.22;;;;;;;;;;1980789;29;20179;-82
2021/12/14 04:33:48;;;;;;;5.03;2.38;;;;;;;;;;1981326;29;20603;-81
2021/12/14 04:34:50;;;;;;;2.17;1.85;;;;;;;;;;1981425;28;20176;-81
2021/12/14 04:35:50;;;;;;;6.43;2.75;;;;;;;;;;1981210;28;20195;-80
2021/12/14 04:36:52;;;;;;;2.50;2.28;;;;;;;;;;1981312;29;20630;-80
2021/12/14 04:37:56;;;;;;;6.30;2.30;;;;;;;;;;1981037;29;20241;-80
2021/12/14 04:39:22;;;;;;;4.38;1.85;;;15.90;97.90;;;;;;1980657;29;20155;-80
2021/12/14 04:51:52;;;;;;;2.78;1.92;;;;;;;;;;1981404;28;20190;-81
2021/12/14 04:52:34;;;;;;;7.13;2.33;;;;;;;;;;1985008;29;20163;-79
2021/12/14 04:53:36;;;;;;;2.88;1.80;;;;;;;;;;1983194;29;20210;-80
2021/12/14 04:54:49;;;;;;;3.05;2.05;;;;;;;;;;1983658;29;20203;-79
2021/12/14 04:55:48;;;;;;;3.22;2.10;;;;;;;;;;1983192;28;20210;-82
2021/12/14 04:56:47;;;;;;;5.57;2.50;;;;;;;;;;1982788;29;20226;-80
2021/12/14 04:57:47;;;;;;;3.20;1.90;;;;;;;;;;1983413;29;20175;-80
2021/12/14 04:58:51;;;;;;;1.77;1.67;;;;;;;;;;1982946;28;20558;-78
2021/12/14 04:59:51;;;;;;;2.88;2.00;;;;;;;;;;1982913;28;20171;-79
2021/12/14 05:00:54;;;;;;;2.50;2.28;;;;;;;;;;1982945;28;20175;-79
2021/12/14 05:01:57;;;;;;;4.13;1.90;;;;;;;;;;1982854;29;20327;-79
2021/12/14 05:02:58;;;;;;;3.28;1.98;;;;;;;;;;1982080;29;20176;-78
2021/12/14 05:03:59;;;;;;;1.80;1.70;;;;;;;;;;1982638;29;20175;-78
2021/12/14 05:05:02;;;;;;;2.38;1.65;;;15.90;97.70;;;;;;1982950;29;20171;-79
2021/12/14 05:07:49;;;;;;;2.38;1.90;;;16.00;97.60;;;;;;1982783;29;20155;-80
2021/12/14 05:09:36;;;;;;;1.90;1.70;;;;;;;;;;1982945;29;20535;-80
2021/12/14 05:10:36;;;;;;;2.72;2.00;;;;;;;;;;1982852;28;20705;-79
2021/12/14 05:11:37;;;;;;;4.90;1.83;;;;;;;;;;1982329;29;20655;-79
2021/12/14 05:12:39;;;;;;;2.30;1.60;;;;;;;;;;1982474;29;20206;-79
2021/12/14 05:13:41;;;;;;;2.78;1.88;;;;;;;;;;1982667;29;20654;-80
2021/12/14 05:14:44;;;;;;;3.38;2.00;;;15.90;98.30;;;;;;1982649;29;20211;-79
2021/12/14 05:15:44;;;;;;;2.53;1.70;;;;;;;;;;1982480;28;20168;-79
2021/12/14 05:16:43;;;;;;;3.25;2.00;;;15.90;97.90;;;;;;1982351;29;20208;-79
2021/12/14 05:17:45;;;;;;;2.15;1.60;;;16.00;97.60;;;;;;1982019;29;20175;-80
2021/12/14 05:18:52;;;;;;;4.32;2.22;;;16.00;96.90;;;;;;1982370;28;20568;-79
2021/12/14 05:19:53;;;;;;;3.75;1.90;;;16.00;96.60;;;;;;1982715;28;20215;-79
2021/12/14 05:20:52;;;;;;;4.63;2.08;;;16.00;96.40;;;;;;1982509;28;20168;-80
2021/12/14 05:21:51;;;;;;;4.10;2.40;;;16.00;96.40;;;;;;1982357;28;20212;-78
2021/12/14 05:22:50;;;;;;;2.47;2.08;;;16.00;96.40;;;;;;1982406;29;20638;-80
2021/12/14 05:23:49;;;;;;;2.80;2.27;;;16.00;96.40;;;;;;1981716;29;20183;-80
2021/12/14 05:25:01;;;;;;;2.20;1.93;;;16.00;96.40;;;;;;1982072;29;20238;-80
2021/12/14 05:26:02;;;;;;;1.90;1.60;;;16.00;96.30;;;;;;1981947;29;20167;-81
2021/12/14 05:27:06;;;;;;;2.65;1.95;;;16.00;96.40;;;;;;1982033;29;20274;-82
2021/12/14 05:28:08;;;;;;;2.50;1.90;;;16.00;96.40;;;;;;1981794;29;20167;-82
2021/12/14 05:29:09;;;;;;;3.47;2.10;;;16.00;96.40;;;;;;1974163;29;20685;-82
2021/12/14 05:30:15;;;;;;;2.03;1.83;;;16.00;96.30;;;;;;1982090;29;20186;-81
2021/12/14 05:31:15;;;;;;;2.30;1.65;;;16.10;96.20;;;;;;1982614;28;20507;-82
2021/12/14 05:32:17;;;;;;;3.42;2.05;;;16.20;96.30;;;;;;1982032;28;20237;-81
2021/12/14 05:33:31;;;;;;;6.50;2.20;;;16.00;96.20;;;;;;1981937;29;20515;-82
2021/12/14 05:34:30;;;;;;;3.55;2.08;;;16.00;96.30;;;;;;1981954;29;20163;-82
2021/12/14 05:35:29;;;;;;;8.68;2.45;;;16.00;96.20;;;;;;1982800;28;20262;-80
2021/12/14 05:36:28;;;;;;;2.90;2.20;;;16.00;96.30;;;;;;1982609;29;20565;-81
2021/12/14 05:37:30;;;;;;;2.10;1.83;;;16.00;96.30;;;;;;1982579;28;20179;-80
2021/12/14 05:39:51;;;;;;;3.15;1.90;;;16.00;96.50;;;;;;1981949;29;20163;-81
2021/12/14 05:43:07;;;;;;;3.10;1.80;;;16.00;96.50;;;;;;1982573;28;20210;-80
2021/12/14 05:44:06;;;;;;;2.72;2.08;;;16.00;96.50;;;;;;1982338;28;20175;-80
2021/12/14 05:45:12;;;;;;;2.50;1.63;;;16.00;96.40;;;;;;1982541;29;20630;-81
2021/12/14 05:46:11;;;;;;;5.25;2.45;;;16.00;96.50;;;;;;1981704;29;20799;-81
2021/12/14 05:47:16;;;;;;;2.78;1.80;;;16.00;96.60;;;;;;1981835;29;20179;-80
2021/12/14 05:48:28;;;;;;;2.75;1.80;;;16.00;96.00;;;;;;1982455;28;20164;-79
2021/12/14 05:49:28;;;;;;;2.25;2.05;;;16.00;95.50;;;;;;1982416;28;20187;-82
2021/12/14 05:50:39;;;;;;;1.73;1.63;;;16.00;95.20;;;;;;1982919;28;20271;-79
2021/12/14 05:51:38;;;;;;;3.20;2.00;;;16.00;94.80;;;;;;1983021;28;20187;-82
2021/12/14 05:52:36;;;;;;;3.55;2.15;;;16.00;94.80;;;;;;1982878;28;20631;-82
2021/12/14 05:53:39;;;;;;;7.03;2.30;;;16.00;94.70;;;;;;1982922;28;20266;-80
2021/12/14 05:54:39;;;;;;;4.07;1.95;;;16.00;94.70;;;;;;1982953;28;20188;-80
2021/12/14 05:55:40;;;;;;;5.05;2.30;;;16.00;94.70;;;;;;1982414;28;20195;-81
2021/12/14 05:56:38;;;;;;;6.40;2.15;;;16.00;94.70;;;;;;1982371;28;20233;-80
2021/12/14 05:57:38;;;;;;;3.50;2.37;;;16.00;94.70;;;;;;1982248;29;20190;-80
2021/12/14 05:58:36;;;;;;;2.50;2.00;;;16.00;94.60;;;;;;1981631;28;20175;-82
2021/12/14 05:59:35;;;;;;;3.00;1.93;;;16.00;94.90;;;;;;1981159;29;20485;-79
2021/12/14 06:00:34;;;;;;;2.10;1.70;;;16.00;94.60;;;;;;1981340;29;20175;-80
2021/12/14 06:01:33;;;;;;;4.20;2.00;;;16.00;94.60;;;;;;1981935;29;20770;-77
2021/12/14 06:02:36;;;;;;;2.30;1.75;;;16.00;94.50;;;;;;1981967;28;20175;-79
2021/12/14 06:03:41;;;;;;;3.17;1.70;;;16.00;94.50;;;;;;1981258;28;20187;-80
2021/12/14 06:04:51;;;;;;;4.22;2.30;;;16.00;94.60;;;;;;1981477;29;20159;-80
2021/12/14 06:05:51;;;;;;;3.40;1.90;;;16.00;94.40;;;;;;1981956;28;20219;-79